sensor_id;sensor_type;location;lat;lon;timestamp;P1;durP1;ratioP1;P2;durP2;ratioP2
14754;SDS011;7469;50.906;6.952;2023-12-20T00:01:22;11.17;;;10.07;;
14754;SDS011;7469;50.906;6.952;2023-12-20T00:03:50;11.50;;;10.00;;
14754;SDS011;7469;50.906;6.952;2023-12-20T00:06:18;13.47;;;10.87;;
14754;SDS011;7469;50.906;6.952;2023-12-20T00:08:46;13.07;;;11.37;;
14754;SDS011;7469;50.906;6.952;2023-12-20T00:11:14;11.30;;;10.10;;
14754;SDS011;7469;50.906;6.952;2023-12-20T00:13:42;11.30;;;9.63;;
14754;SDS011;7469;50.906;6.952;2023-12-20T00:16:15;13.17;;;10.53;;
14754;SDS011;7469;50.906;6.952;2023-12-20T00:18:44;13.33;;;10.97;;
14754;SDS011;7469;50.906;6.952;2023-12-20T00:21:12;13.03;;;11.33;;
14754;SDS011;7469;50.906;6.952;2023-12-20T00:23:41;12.17;;;10.87;;
14754;SDS011;7469;50.906;6.952;2023-12-20T00:26:09;14.93;;;11.50;;
14754;SDS011;7469;50.906;6.952;2023-12-20T00:28:37;13.00;;;10.93;;
14754;SDS011;7469;50.906;6.952;2023-12-20T00:31:05;13.67;;;11.07;;
14754;SDS011;7469;50.906;6.952;2023-12-20T00:33:35;15.57;;;11.47;;
14754;SDS011;7469;50.906;6.952;2023-12-20T00:36:04;13.57;;;11.83;;
14754;SDS011;7469;50.906;6.952;2023-12-20T00:38:32;13.90;;;11.67;;
14754;SDS011;7469;50.906;6.952;2023-12-20T00:41:00;12.77;;;10.07;;
14754;SDS011;7469;50.906;6.952;2023-12-20T00:43:28;12.83;;;10.00;;
14754;SDS011;7469;50.906;6.952;2023-12-20T00:45:56;11.93;;;10.00;;
14754;SDS011;7469;50.906;6.952;2023-12-20T00:48:26;11.30;;;9.50;;
14754;SDS011;7469;50.906;6.952;2023-12-20T00:50:57;11.90;;;9.77;;
14754;SDS011;7469;50.906;6.952;2023-12-20T00:53:25;10.93;;;9.17;;
14754;SDS011;7469;50.906;6.952;2023-12-20T00:55:53;10.33;;;8.93;;
14754;SDS011;7469;50.906;6.952;2023-12-20T00:58:21;11.07;;;8.87;;
14754;SDS011;7469;50.906;6.952;2023-12-20T01:00:49;11.00;;;9.17;;
14754;SDS011;7469;50.906;6.952;2023-12-20T01:03:17;11.87;;;8.67;;
14754;SDS011;7469;50.906;6.952;2023-12-20T01:05:45;12.67;;;8.50;;
14754;SDS011;7469;50.906;6.952;2023-12-20T01:08:15;9.90;;;8.20;;
14754;SDS011;7469;50.906;6.952;2023-12-20T01:10:43;12.23;;;8.27;;
14754;SDS011;7469;50.906;6.952;2023-12-20T01:13:10;10.30;;;8.50;;
14754;SDS011;7469;50.906;6.952;2023-12-20T01:15:38;10.83;;;8.67;;
14754;SDS011;7469;50.906;6.952;2023-12-20T01:18:07;10.53;;;7.87;;
14754;SDS011;7469;50.906;6.952;2023-12-20T01:20:35;9.77;;;7.20;;
14754;SDS011;7469;50.906;6.952;2023-12-20T01:23:03;11.53;;;7.63;;
14754;SDS011;7469;50.906;6.952;2023-12-20T01:25:32;11.07;;;7.63;;
14754;SDS011;7469;50.906;6.952;2023-12-20T01:28:00;11.37;;;8.23;;
14754;SDS011;7469;50.906;6.952;2023-12-20T01:30:28;10.50;;;7.27;;
14754;SDS011;7469;50.906;6.952;2023-12-20T01:32:56;10.87;;;7.90;;
14754;SDS011;7469;50.906;6.952;2023-12-20T01:35:24;15.77;;;8.83;;
14754;SDS011;7469;50.906;6.952;2023-12-20T01:37:52;17.03;;;11.93;;
14754;SDS011;7469;50.906;6.952;2023-12-20T01:40:22;21.17;;;14.67;;
14754;SDS011;7469;50.906;6.952;2023-12-20T01:42:59;21.43;;;15.10;;
14754;SDS011;7469;50.906;6.952;2023-12-20T01:45:27;23.03;;;15.63;;
14754;SDS011;7469;50.906;6.952;2023-12-20T01:47:57;20.83;;;15.23;;
14754;SDS011;7469;50.906;6.952;2023-12-20T01:50:28;20.97;;;12.43;;
14754;SDS011;7469;50.906;6.952;2023-12-20T01:53:00;17.40;;;12.07;;
14754;SDS011;7469;50.906;6.952;2023-12-20T01:55:31;15.93;;;12.07;;
14754;SDS011;7469;50.906;6.952;2023-12-20T01:58:03;18.83;;;10.80;;
14754;SDS011;7469;50.906;6.952;2023-12-20T02:00:31;16.97;;;11.00;;
14754;SDS011;7469;50.906;6.952;2023-12-20T02:03:01;14.13;;;10.77;;
14754;SDS011;7469;50.906;6.952;2023-12-20T02:05:29;15.80;;;9.80;;
14754;SDS011;7469;50.906;6.952;2023-12-20T02:07:58;12.87;;;9.30;;
14754;SDS011;7469;50.906;6.952;2023-12-20T02:10:26;14.33;;;8.47;;
14754;SDS011;7469;50.906;6.952;2023-12-20T02:12:55;13.23;;;7.27;;
14754;SDS011;7469;50.906;6.952;2023-12-20T02:15:24;10.40;;;6.40;;
14754;SDS011;7469;50.906;6.952;2023-12-20T02:17:52;13.33;;;6.63;;
14754;SDS011;7469;50.906;6.952;2023-12-20T02:20:21;13.83;;;6.23;;
14754;SDS011;7469;50.906;6.952;2023-12-20T02:22:51;12.53;;;5.57;;
14754;SDS011;7469;50.906;6.952;2023-12-20T02:25:19;15.30;;;5.93;;
14754;SDS011;7469;50.906;6.952;2023-12-20T02:27:47;10.80;;;5.53;;
14754;SDS011;7469;50.906;6.952;2023-12-20T02:30:16;15.67;;;5.50;;
14754;SDS011;7469;50.906;6.952;2023-12-20T02:32:44;15.73;;;5.13;;
14754;SDS011;7469;50.906;6.952;2023-12-20T02:35:12;11.47;;;4.10;;
14754;SDS011;7469;50.906;6.952;2023-12-20T02:37:41;12.60;;;4.57;;
14754;SDS011;7469;50.906;6.952;2023-12-20T02:40:12;12.70;;;4.30;;
14754;SDS011;7469;50.906;6.952;2023-12-20T02:42:42;15.63;;;3.90;;
14754;SDS011;7469;50.906;6.952;2023-12-20T02:45:10;15.23;;;3.87;;
14754;SDS011;7469;50.906;6.952;2023-12-20T02:47:38;15.03;;;3.43;;
14754;SDS011;7469;50.906;6.952;2023-12-20T02:50:07;16.73;;;3.73;;
14754;SDS011;7469;50.906;6.952;2023-12-20T02:52:37;15.03;;;3.17;;
14754;SDS011;7469;50.906;6.952;2023-12-20T02:55:05;18.27;;;3.77;;
14754;SDS011;7469;50.906;6.952;2023-12-20T02:57:35;14.10;;;3.97;;
14754;SDS011;7469;50.906;6.952;2023-12-20T03:00:10;13.23;;;3.60;;
14754;SDS011;7469;50.906;6.952;2023-12-20T03:02:41;12.43;;;3.40;;
14754;SDS011;7469;50.906;6.952;2023-12-20T03:05:09;13.53;;;2.90;;
14754;SDS011;7469;50.906;6.952;2023-12-20T03:07:37;12.27;;;3.20;;
14754;SDS011;7469;50.906;6.952;2023-12-20T03:10:05;8.73;;;2.80;;
14754;SDS011;7469;50.906;6.952;2023-12-20T03:12:47;10.33;;;3.33;;
14754;SDS011;7469;50.906;6.952;2023-12-20T03:15:15;7.60;;;2.60;;
14754;SDS011;7469;50.906;6.952;2023-12-20T03:17:43;11.27;;;2.60;;
14754;SDS011;7469;50.906;6.952;2023-12-20T03:20:12;12.93;;;2.77;;
14754;SDS011;7469;50.906;6.952;2023-12-20T03:22:40;14.30;;;3.00;;
14754;SDS011;7469;50.906;6.952;2023-12-20T03:25:08;13.63;;;3.00;;
14754;SDS011;7469;50.906;6.952;2023-12-20T03:27:36;11.67;;;2.70;;
14754;SDS011;7469;50.906;6.952;2023-12-20T03:30:10;13.07;;;3.03;;
14754;SDS011;7469;50.906;6.952;2023-12-20T03:32:40;12.87;;;2.93;;
14754;SDS011;7469;50.906;6.952;2023-12-20T03:35:09;10.40;;;3.23;;
14754;SDS011;7469;50.906;6.952;2023-12-20T03:37:38;23.03;;;3.70;;
14754;SDS011;7469;50.906;6.952;2023-12-20T03:40:06;11.77;;;3.50;;
14754;SDS011;7469;50.906;6.952;2023-12-20T03:42:34;15.13;;;3.37;;
14754;SDS011;7469;50.906;6.952;2023-12-20T03:45:03;14.70;;;3.60;;
14754;SDS011;7469;50.906;6.952;2023-12-20T03:47:32;15.07;;;3.40;;
14754;SDS011;7469;50.906;6.952;2023-12-20T03:50:00;13.23;;;3.70;;
14754;SDS011;7469;50.906;6.952;2023-12-20T03:52:33;22.27;;;3.20;;
14754;SDS011;7469;50.906;6.952;2023-12-20T03:55:04;10.53;;;2.90;;
14754;SDS011;7469;50.906;6.952;2023-12-20T03:57:35;15.07;;;5.70;;
14754;SDS011;7469;50.906;6.952;2023-12-20T04:00:03;14.97;;;3.33;;
14754;SDS011;7469;50.906;6.952;2023-12-20T04:02:37;16.63;;;3.50;;
14754;SDS011;7469;50.906;6.952;2023-12-20T04:05:06;15.13;;;3.40;;
14754;SDS011;7469;50.906;6.952;2023-12-20T04:07:35;18.90;;;3.77;;
14754;SDS011;7469;50.906;6.952;2023-12-20T04:10:04;15.23;;;4.03;;
14754;SDS011;7469;50.906;6.952;2023-12-20T04:12:33;13.73;;;3.73;;
14754;SDS011;7469;50.906;6.952;2023-12-20T04:15:02;12.43;;;3.30;;
14754;SDS011;7469;50.906;6.952;2023-12-20T04:17:35;12.50;;;3.27;;
14754;SDS011;7469;50.906;6.952;2023-12-20T04:20:05;15.87;;;3.90;;
14754;SDS011;7469;50.906;6.952;2023-12-20T04:22:34;14.37;;;4.50;;
14754;SDS011;7469;50.906;6.952;2023-12-20T04:25:03;9.60;;;3.40;;
14754;SDS011;7469;50.906;6.952;2023-12-20T04:27:31;18.17;;;4.40;;
14754;SDS011;7469;50.906;6.952;2023-12-20T04:29:59;14.60;;;4.27;;
14754;SDS011;7469;50.906;6.952;2023-12-20T04:32:27;13.87;;;5.10;;
14754;SDS011;7469;50.906;6.952;2023-12-20T04:34:55;20.63;;;5.07;;
14754;SDS011;7469;50.906;6.952;2023-12-20T04:37:24;15.90;;;5.33;;
14754;SDS011;7469;50.906;6.952;2023-12-20T04:39:52;16.07;;;5.27;;
14754;SDS011;7469;50.906;6.952;2023-12-20T04:42:21;20.37;;;5.13;;
14754;SDS011;7469;50.906;6.952;2023-12-20T04:44:49;16.03;;;5.60;;
14754;SDS011;7469;50.906;6.952;2023-12-20T04:47:17;18.93;;;5.33;;
14754;SDS011;7469;50.906;6.952;2023-12-20T04:49:45;18.47;;;4.80;;
14754;SDS011;7469;50.906;6.952;2023-12-20T04:52:14;22.23;;;5.37;;
14754;SDS011;7469;50.906;6.952;2023-12-20T04:54:43;20.03;;;5.77;;
14754;SDS011;7469;50.906;6.952;2023-12-20T04:57:11;27.50;;;5.50;;
14754;SDS011;7469;50.906;6.952;2023-12-20T04:59:39;16.80;;;4.70;;
14754;SDS011;7469;50.906;6.952;2023-12-20T05:02:10;19.43;;;5.13;;
14754;SDS011;7469;50.906;6.952;2023-12-20T05:04:38;19.20;;;5.27;;
14754;SDS011;7469;50.906;6.952;2023-12-20T05:07:06;19.03;;;4.97;;
14754;SDS011;7469;50.906;6.952;2023-12-20T05:09:34;13.97;;;3.97;;
14754;SDS011;7469;50.906;6.952;2023-12-20T05:12:03;13.67;;;4.07;;
14754;SDS011;7469;50.906;6.952;2023-12-20T05:14:32;17.77;;;4.70;;
14754;SDS011;7469;50.906;6.952;2023-12-20T05:17:00;13.97;;;4.37;;
14754;SDS011;7469;50.906;6.952;2023-12-20T05:19:29;19.13;;;4.67;;
14754;SDS011;7469;50.906;6.952;2023-12-20T05:21:57;15.13;;;4.23;;
14754;SDS011;7469;50.906;6.952;2023-12-20T05:24:25;10.57;;;4.13;;
14754;SDS011;7469;50.906;6.952;2023-12-20T05:26:53;16.67;;;4.83;;
14754;SDS011;7469;50.906;6.952;2023-12-20T05:29:23;20.40;;;5.43;;
14754;SDS011;7469;50.906;6.952;2023-12-20T05:31:51;18.90;;;5.73;;
14754;SDS011;7469;50.906;6.952;2023-12-20T05:34:18;17.97;;;5.00;;
14754;SDS011;7469;50.906;6.952;2023-12-20T05:36:47;17.23;;;4.93;;
14754;SDS011;7469;50.906;6.952;2023-12-20T05:39:15;16.90;;;5.27;;
14754;SDS011;7469;50.906;6.952;2023-12-20T05:41:44;17.83;;;5.40;;
14754;SDS011;7469;50.906;6.952;2023-12-20T05:44:14;13.03;;;4.67;;
14754;SDS011;7469;50.906;6.952;2023-12-20T05:46:46;21.93;;;5.00;;
14754;SDS011;7469;50.906;6.952;2023-12-20T05:49:14;22.60;;;6.63;;
14754;SDS011;7469;50.906;6.952;2023-12-20T05:51:42;19.93;;;5.00;;
14754;SDS011;7469;50.906;6.952;2023-12-20T05:54:10;17.67;;;4.77;;
14754;SDS011;7469;50.906;6.952;2023-12-20T05:56:38;20.10;;;5.23;;
14754;SDS011;7469;50.906;6.952;2023-12-20T05:59:07;18.03;;;4.87;;
14754;SDS011;7469;50.906;6.952;2023-12-20T06:01:35;21.77;;;5.03;;
14754;SDS011;7469;50.906;6.952;2023-12-20T06:04:05;12.23;;;4.63;;
14754;SDS011;7469;50.906;6.952;2023-12-20T06:06:33;15.80;;;4.60;;
14754;SDS011;7469;50.906;6.952;2023-12-20T06:09:01;17.43;;;5.07;;
14754;SDS011;7469;50.906;6.952;2023-12-20T06:11:30;18.03;;;4.57;;
14754;SDS011;7469;50.906;6.952;2023-12-20T06:13:58;18.60;;;4.73;;
14754;SDS011;7469;50.906;6.952;2023-12-20T06:16:26;15.00;;;5.03;;
14754;SDS011;7469;50.906;6.952;2023-12-20T06:18:54;20.17;;;5.70;;
14754;SDS011;7469;50.906;6.952;2023-12-20T06:21:23;15.37;;;6.07;;
14754;SDS011;7469;50.906;6.952;2023-12-20T06:23:51;18.87;;;5.00;;
14754;SDS011;7469;50.906;6.952;2023-12-20T06:26:19;16.23;;;4.80;;
14754;SDS011;7469;50.906;6.952;2023-12-20T06:28:47;21.23;;;5.63;;
14754;SDS011;7469;50.906;6.952;2023-12-20T06:31:15;14.63;;;4.73;;
14754;SDS011;7469;50.906;6.952;2023-12-20T06:33:45;23.37;;;4.77;;
14754;SDS011;7469;50.906;6.952;2023-12-20T06:36:13;13.73;;;4.50;;
14754;SDS011;7469;50.906;6.952;2023-12-20T06:38:43;24.00;;;4.97;;
14754;SDS011;7469;50.906;6.952;2023-12-20T06:41:12;18.50;;;4.33;;
14754;SDS011;7469;50.906;6.952;2023-12-20T06:43:41;17.63;;;4.37;;
14754;SDS011;7469;50.906;6.952;2023-12-20T06:46:15;19.03;;;4.93;;
14754;SDS011;7469;50.906;6.952;2023-12-20T06:48:44;13.80;;;4.50;;
14754;SDS011;7469;50.906;6.952;2023-12-20T06:51:14;24.93;;;5.83;;
14754;SDS011;7469;50.906;6.952;2023-12-20T06:53:44;17.93;;;4.50;;
14754;SDS011;7469;50.906;6.952;2023-12-20T06:56:12;16.00;;;4.10;;
14754;SDS011;7469;50.906;6.952;2023-12-20T06:58:44;16.37;;;4.23;;
14754;SDS011;7469;50.906;6.952;2023-12-20T07:01:12;18.37;;;3.90;;
14754;SDS011;7469;50.906;6.952;2023-12-20T07:03:40;17.27;;;4.67;;
14754;SDS011;7469;50.906;6.952;2023-12-20T07:06:09;15.17;;;4.30;;
14754;SDS011;7469;50.906;6.952;2023-12-20T07:08:37;19.70;;;4.17;;
14754;SDS011;7469;50.906;6.952;2023-12-20T07:11:10;12.80;;;3.90;;
14754;SDS011;7469;50.906;6.952;2023-12-20T07:13:38;20.93;;;3.60;;
14754;SDS011;7469;50.906;6.952;2023-12-20T07:16:08;14.73;;;3.43;;
14754;SDS011;7469;50.906;6.952;2023-12-20T07:18:36;21.73;;;5.53;;
14754;SDS011;7469;50.906;6.952;2023-12-20T07:21:04;20.77;;;3.93;;
14754;SDS011;7469;50.906;6.952;2023-12-20T07:23:34;20.93;;;4.70;;
14754;SDS011;7469;50.906;6.952;2023-12-20T07:26:02;17.93;;;4.73;;
14754;SDS011;7469;50.906;6.952;2023-12-20T07:28:32;20.27;;;4.17;;
14754;SDS011;7469;50.906;6.952;2023-12-20T07:31:00;15.53;;;4.27;;
14754;SDS011;7469;50.906;6.952;2023-12-20T07:33:28;18.10;;;4.43;;
14754;SDS011;7469;50.906;6.952;2023-12-20T07:36:05;17.90;;;4.50;;
14754;SDS011;7469;50.906;6.952;2023-12-20T07:38:33;19.47;;;4.07;;
14754;SDS011;7469;50.906;6.952;2023-12-20T07:41:02;23.20;;;5.00;;
14754;SDS011;7469;50.906;6.952;2023-12-20T07:43:31;16.37;;;4.10;;
14754;SDS011;7469;50.906;6.952;2023-12-20T07:46:03;17.07;;;4.53;;
14754;SDS011;7469;50.906;6.952;2023-12-20T07:48:32;17.43;;;4.33;;
14754;SDS011;7469;50.906;6.952;2023-12-20T07:51:01;14.43;;;3.90;;
14754;SDS011;7469;50.906;6.952;2023-12-20T07:53:29;17.47;;;4.53;;
14754;SDS011;7469;50.906;6.952;2023-12-20T07:55:57;13.47;;;4.07;;
14754;SDS011;7469;50.906;6.952;2023-12-20T07:58:24;15.57;;;4.50;;
14754;SDS011;7469;50.906;6.952;2023-12-20T08:01:12;15.17;;;4.63;;
14754;SDS011;7469;50.906;6.952;2023-12-20T08:03:40;14.73;;;5.17;;
14754;SDS011;7469;50.906;6.952;2023-12-20T08:06:08;15.73;;;4.37;;
14754;SDS011;7469;50.906;6.952;2023-12-20T08:08:36;14.10;;;3.83;;
14754;SDS011;7469;50.906;6.952;2023-12-20T08:11:04;18.10;;;4.67;;
14754;SDS011;7469;50.906;6.952;2023-12-20T08:13:32;18.40;;;4.33;;
14754;SDS011;7469;50.906;6.952;2023-12-20T08:16:00;17.30;;;4.87;;
14754;SDS011;7469;50.906;6.952;2023-12-20T08:18:32;15.20;;;4.20;;
14754;SDS011;7469;50.906;6.952;2023-12-20T08:21:01;12.83;;;4.03;;
14754;SDS011;7469;50.906;6.952;2023-12-20T08:23:29;11.77;;;3.73;;
14754;SDS011;7469;50.906;6.952;2023-12-20T08:25:58;17.13;;;4.57;;
14754;SDS011;7469;50.906;6.952;2023-12-20T08:28:30;14.67;;;4.13;;
14754;SDS011;7469;50.906;6.952;2023-12-20T08:30:59;23.03;;;5.03;;
14754;SDS011;7469;50.906;6.952;2023-12-20T08:33:36;18.57;;;4.53;;
14754;SDS011;7469;50.906;6.952;2023-12-20T08:36:06;18.70;;;4.93;;
14754;SDS011;7469;50.906;6.952;2023-12-20T08:38:34;14.07;;;4.57;;
14754;SDS011;7469;50.906;6.952;2023-12-20T08:41:02;18.73;;;4.53;;
14754;SDS011;7469;50.906;6.952;2023-12-20T08:43:31;17.57;;;3.63;;
14754;SDS011;7469;50.906;6.952;2023-12-20T08:45:59;19.83;;;3.80;;
14754;SDS011;7469;50.906;6.952;2023-12-20T08:48:27;18.67;;;4.43;;
14754;SDS011;7469;50.906;6.952;2023-12-20T08:50:57;12.33;;;3.10;;
14754;SDS011;7469;50.906;6.952;2023-12-20T08:53:25;15.07;;;3.77;;
14754;SDS011;7469;50.906;6.952;2023-12-20T08:55:54;17.73;;;4.20;;
14754;SDS011;7469;50.906;6.952;2023-12-20T08:58:24;14.67;;;3.93;;
14754;SDS011;7469;50.906;6.952;2023-12-20T09:00:54;15.00;;;4.17;;
14754;SDS011;7469;50.906;6.952;2023-12-20T09:03:22;14.60;;;3.97;;
14754;SDS011;7469;50.906;6.952;2023-12-20T09:05:50;17.40;;;4.13;;
14754;SDS011;7469;50.906;6.952;2023-12-20T09:08:19;18.30;;;4.27;;
14754;SDS011;7469;50.906;6.952;2023-12-20T09:10:48;18.93;;;4.00;;
14754;SDS011;7469;50.906;6.952;2023-12-20T09:13:16;13.23;;;3.80;;
14754;SDS011;7469;50.906;6.952;2023-12-20T09:15:47;12.23;;;3.33;;
14754;SDS011;7469;50.906;6.952;2023-12-20T09:18:16;16.13;;;3.70;;
14754;SDS011;7469;50.906;6.952;2023-12-20T09:20:44;17.27;;;3.40;;
14754;SDS011;7469;50.906;6.952;2023-12-20T09:23:15;14.60;;;3.33;;
14754;SDS011;7469;50.906;6.952;2023-12-20T09:25:48;13.17;;;3.30;;
14754;SDS011;7469;50.906;6.952;2023-12-20T09:28:18;16.27;;;5.37;;
14754;SDS011;7469;50.906;6.952;2023-12-20T09:30:46;15.63;;;3.40;;
14754;SDS011;7469;50.906;6.952;2023-12-20T09:33:14;13.93;;;3.13;;
14754;SDS011;7469;50.906;6.952;2023-12-20T09:35:43;16.80;;;3.10;;
14754;SDS011;7469;50.906;6.952;2023-12-20T09:38:11;17.53;;;3.40;;
14754;SDS011;7469;50.906;6.952;2023-12-20T09:40:42;15.47;;;3.60;;
14754;SDS011;7469;50.906;6.952;2023-12-20T09:43:14;18.00;;;3.33;;
14754;SDS011;7469;50.906;6.952;2023-12-20T09:45:43;13.30;;;3.10;;
14754;SDS011;7469;50.906;6.952;2023-12-20T09:48:15;17.50;;;3.30;;
14754;SDS011;7469;50.906;6.952;2023-12-20T09:50:46;16.80;;;3.40;;
14754;SDS011;7469;50.906;6.952;2023-12-20T09:53:19;19.13;;;3.80;;
14754;SDS011;7469;50.906;6.952;2023-12-20T09:55:49;14.10;;;3.57;;
14754;SDS011;7469;50.906;6.952;2023-12-20T09:58:19;14.83;;;3.47;;
14754;SDS011;7469;50.906;6.952;2023-12-20T10:00:47;10.37;;;2.77;;
14754;SDS011;7469;50.906;6.952;2023-12-20T10:03:16;13.47;;;3.03;;
14754;SDS011;7469;50.906;6.952;2023-12-20T10:05:51;22.63;;;3.40;;
14754;SDS011;7469;50.906;6.952;2023-12-20T10:08:21;15.40;;;3.27;;
14754;SDS011;7469;50.906;6.952;2023-12-20T10:10:49;21.67;;;3.80;;
14754;SDS011;7469;50.906;6.952;2023-12-20T10:13:17;15.07;;;3.13;;
14754;SDS011;7469;50.906;6.952;2023-12-20T10:15:47;10.90;;;3.03;;
14754;SDS011;7469;50.906;6.952;2023-12-20T10:18:17;13.13;;;3.47;;
14754;SDS011;7469;50.906;6.952;2023-12-20T10:20:45;15.37;;;3.83;;
14754;SDS011;7469;50.906;6.952;2023-12-20T10:23:15;16.50;;;3.00;;
14754;SDS011;7469;50.906;6.952;2023-12-20T10:25:49;15.20;;;3.40;;
14754;SDS011;7469;50.906;6.952;2023-12-20T10:28:25;13.07;;;3.70;;
14754;SDS011;7469;50.906;6.952;2023-12-20T10:30:54;14.90;;;3.53;;
14754;SDS011;7469;50.906;6.952;2023-12-20T10:33:24;20.43;;;3.67;;
14754;SDS011;7469;50.906;6.952;2023-12-20T10:35:53;13.23;;;2.93;;
14754;SDS011;7469;50.906;6.952;2023-12-20T10:38:21;15.77;;;3.80;;
14754;SDS011;7469;50.906;6.952;2023-12-20T10:40:50;12.57;;;3.60;;
14754;SDS011;7469;50.906;6.952;2023-12-20T10:43:22;14.60;;;2.97;;
14754;SDS011;7469;50.906;6.952;2023-12-20T10:45:54;17.93;;;3.57;;
14754;SDS011;7469;50.906;6.952;2023-12-20T10:48:22;14.53;;;3.20;;
14754;SDS011;7469;50.906;6.952;2023-12-20T10:50:56;12.93;;;3.00;;
14754;SDS011;7469;50.906;6.952;2023-12-20T10:53:25;14.77;;;3.10;;
14754;SDS011;7469;50.906;6.952;2023-12-20T10:55:55;17.37;;;3.47;;
14754;SDS011;7469;50.906;6.952;2023-12-20T10:58:24;12.13;;;2.90;;
14754;SDS011;7469;50.906;6.952;2023-12-20T11:00:57;12.73;;;3.07;;
14754;SDS011;7469;50.906;6.952;2023-12-20T11:03:28;11.73;;;3.30;;
14754;SDS011;7469;50.906;6.952;2023-12-20T11:06:02;11.47;;;3.20;;
14754;SDS011;7469;50.906;6.952;2023-12-20T11:08:39;12.83;;;2.80;;
14754;SDS011;7469;50.906;6.952;2023-12-20T11:11:14;9.97;;;3.00;;
14754;SDS011;7469;50.906;6.952;2023-12-20T11:13:53;12.57;;;3.20;;
14754;SDS011;7469;50.906;6.952;2023-12-20T11:16:25;10.20;;;2.87;;
14754;SDS011;7469;50.906;6.952;2023-12-20T11:19:07;13.97;;;3.00;;
14754;SDS011;7469;50.906;6.952;2023-12-20T11:21:35;13.23;;;3.17;;
14754;SDS011;7469;50.906;6.952;2023-12-20T11:24:03;11.27;;;2.80;;
14754;SDS011;7469;50.906;6.952;2023-12-20T11:26:32;14.60;;;3.23;;
14754;SDS011;7469;50.906;6.952;2023-12-20T11:31:58;15.87;;;3.27;;
14754;SDS011;7469;50.906;6.952;2023-12-20T11:34:27;14.10;;;3.27;;
14754;SDS011;7469;50.906;6.952;2023-12-20T11:36:59;11.30;;;3.37;;
14754;SDS011;7469;50.906;6.952;2023-12-20T11:39:29;15.30;;;4.07;;
14754;SDS011;7469;50.906;6.952;2023-12-20T11:42:03;12.73;;;2.83;;
14754;SDS011;7469;50.906;6.952;2023-12-20T11:44:32;14.27;;;2.80;;
14754;SDS011;7469;50.906;6.952;2023-12-20T11:47:02;15.17;;;3.30;;
14754;SDS011;7469;50.906;6.952;2023-12-20T11:49:32;13.27;;;2.73;;
14754;SDS011;7469;50.906;6.952;2023-12-20T11:52:00;11.93;;;3.20;;
14754;SDS011;7469;50.906;6.952;2023-12-20T11:54:29;12.37;;;2.93;;
14754;SDS011;7469;50.906;6.952;2023-12-20T11:56:57;10.17;;;3.03;;
14754;SDS011;7469;50.906;6.952;2023-12-20T11:59:25;15.33;;;3.90;;
14754;SDS011;7469;50.906;6.952;2023-12-20T12:01:55;14.60;;;2.93;;
14754;SDS011;7469;50.906;6.952;2023-12-20T12:04:29;10.40;;;3.10;;
14754;SDS011;7469;50.906;6.952;2023-12-20T12:06:57;13.37;;;2.93;;
14754;SDS011;7469;50.906;6.952;2023-12-20T12:09:25;14.27;;;2.77;;
14754;SDS011;7469;50.906;6.952;2023-12-20T12:11:53;12.97;;;3.17;;
14754;SDS011;7469;50.906;6.952;2023-12-20T12:14:21;14.50;;;2.80;;
14754;SDS011;7469;50.906;6.952;2023-12-20T12:16:49;10.50;;;2.93;;
14754;SDS011;7469;50.906;6.952;2023-12-20T12:19:20;12.73;;;2.83;;
14754;SDS011;7469;50.906;6.952;2023-12-20T12:21:50;13.93;;;3.00;;
14754;SDS011;7469;50.906;6.952;2023-12-20T12:24:19;19.40;;;3.83;;
14754;SDS011;7469;50.906;6.952;2023-12-20T12:26:52;14.63;;;2.80;;
14754;SDS011;7469;50.906;6.952;2023-12-20T12:29:20;9.00;;;3.00;;
14754;SDS011;7469;50.906;6.952;2023-12-20T12:31:47;9.27;;;3.10;;
14754;SDS011;7469;50.906;6.952;2023-12-20T12:34:16;10.53;;;2.87;;
14754;SDS011;7469;50.906;6.952;2023-12-20T12:36:45;14.93;;;3.13;;
14754;SDS011;7469;50.906;6.952;2023-12-20T12:39:16;16.70;;;3.50;;
14754;SDS011;7469;50.906;6.952;2023-12-20T12:41:45;14.00;;;2.97;;
14754;SDS011;7469;50.906;6.952;2023-12-20T12:44:14;11.43;;;3.40;;
14754;SDS011;7469;50.906;6.952;2023-12-20T12:46:43;13.30;;;3.70;;
14754;SDS011;7469;50.906;6.952;2023-12-20T12:49:12;15.67;;;3.37;;
14754;SDS011;7469;50.906;6.952;2023-12-20T12:51:40;16.87;;;3.67;;
14754;SDS011;7469;50.906;6.952;2023-12-20T12:54:09;15.80;;;3.60;;
14754;SDS011;7469;50.906;6.952;2023-12-20T12:56:38;13.40;;;3.13;;
14754;SDS011;7469;50.906;6.952;2023-12-20T12:59:06;15.70;;;3.40;;
14754;SDS011;7469;50.906;6.952;2023-12-20T13:01:34;12.37;;;3.23;;
14754;SDS011;7469;50.906;6.952;2023-12-20T13:04:02;13.83;;;3.60;;
14754;SDS011;7469;50.906;6.952;2023-12-20T13:06:36;14.83;;;3.80;;
14754;SDS011;7469;50.906;6.952;2023-12-20T13:09:05;16.20;;;4.40;;
14754;SDS011;7469;50.906;6.952;2023-12-20T13:11:33;16.47;;;3.87;;
14754;SDS011;7469;50.906;6.952;2023-12-20T13:14:02;14.20;;;3.67;;
14754;SDS011;7469;50.906;6.952;2023-12-20T13:16:30;11.53;;;3.87;;
14754;SDS011;7469;50.906;6.952;2023-12-20T13:19:00;13.20;;;3.40;;
14754;SDS011;7469;50.906;6.952;2023-12-20T13:21:28;12.47;;;3.73;;
14754;SDS011;7469;50.906;6.952;2023-12-20T13:23:57;12.63;;;3.60;;
14754;SDS011;7469;50.906;6.952;2023-12-20T13:26:25;16.23;;;5.30;;
14754;SDS011;7469;50.906;6.952;2023-12-20T13:28:53;14.80;;;3.83;;
14754;SDS011;7469;50.906;6.952;2023-12-20T13:31:22;13.47;;;3.90;;
14754;SDS011;7469;50.906;6.952;2023-12-20T13:33:51;13.43;;;3.33;;
14754;SDS011;7469;50.906;6.952;2023-12-20T13:36:19;11.33;;;3.20;;
14754;SDS011;7469;50.906;6.952;2023-12-20T13:38:47;12.37;;;3.67;;
14754;SDS011;7469;50.906;6.952;2023-12-20T13:41:15;14.20;;;3.43;;
14754;SDS011;7469;50.906;6.952;2023-12-20T13:43:43;15.27;;;3.37;;
14754;SDS011;7469;50.906;6.952;2023-12-20T13:46:11;12.87;;;3.73;;
14754;SDS011;7469;50.906;6.952;2023-12-20T13:48:41;12.37;;;3.60;;
14754;SDS011;7469;50.906;6.952;2023-12-20T13:51:09;13.17;;;3.47;;
14754;SDS011;7469;50.906;6.952;2023-12-20T13:53:37;11.07;;;3.23;;
14754;SDS011;7469;50.906;6.952;2023-12-20T13:56:05;12.37;;;3.43;;
14754;SDS011;7469;50.906;6.952;2023-12-20T13:58:34;12.90;;;3.43;;
14754;SDS011;7469;50.906;6.952;2023-12-20T14:01:04;9.00;;;3.23;;
14754;SDS011;7469;50.906;6.952;2023-12-20T14:03:32;16.50;;;3.17;;
14754;SDS011;7469;50.906;6.952;2023-12-20T14:06:01;12.00;;;3.40;;
14754;SDS011;7469;50.906;6.952;2023-12-20T14:08:30;14.50;;;3.87;;
14754;SDS011;7469;50.906;6.952;2023-12-20T14:10:58;12.43;;;3.27;;
14754;SDS011;7469;50.906;6.952;2023-12-20T14:13:27;10.10;;;2.90;;
14754;SDS011;7469;50.906;6.952;2023-12-20T14:15:55;12.10;;;2.73;;
14754;SDS011;7469;50.906;6.952;2023-12-20T14:18:25;11.30;;;3.17;;
14754;SDS011;7469;50.906;6.952;2023-12-20T14:20:53;9.67;;;2.87;;
14754;SDS011;7469;50.906;6.952;2023-12-20T14:23:22;17.53;;;3.80;;
14754;SDS011;7469;50.906;6.952;2023-12-20T14:25:50;15.30;;;3.20;;
14754;SDS011;7469;50.906;6.952;2023-12-20T14:28:19;14.13;;;3.23;;
14754;SDS011;7469;50.906;6.952;2023-12-20T14:30:47;9.97;;;3.37;;
14754;SDS011;7469;50.906;6.952;2023-12-20T14:33:15;11.77;;;2.83;;
14754;SDS011;7469;50.906;6.952;2023-12-20T14:35:46;8.67;;;2.67;;
14754;SDS011;7469;50.906;6.952;2023-12-20T14:38:13;9.63;;;3.67;;
14754;SDS011;7469;50.906;6.952;2023-12-20T14:40:43;6.47;;;2.47;;
14754;SDS011;7469;50.906;6.952;2023-12-20T14:43:11;8.23;;;2.50;;
14754;SDS011;7469;50.906;6.952;2023-12-20T14:45:39;11.57;;;2.80;;
14754;SDS011;7469;50.906;6.952;2023-12-20T14:48:07;10.27;;;3.10;;
14754;SDS011;7469;50.906;6.952;2023-12-20T14:50:35;9.33;;;3.13;;
14754;SDS011;7469;50.906;6.952;2023-12-20T14:53:04;9.23;;;2.70;;
14754;SDS011;7469;50.906;6.952;2023-12-20T14:55:31;14.40;;;3.40;;
14754;SDS011;7469;50.906;6.952;2023-12-20T14:58:02;13.67;;;3.43;;
14754;SDS011;7469;50.906;6.952;2023-12-20T15:00:30;19.97;;;8.87;;
14754;SDS011;7469;50.906;6.952;2023-12-20T15:02:58;13.07;;;3.60;;